sensor_id;sensor_type;location;lat;lon;timestamp;P1;durP1;ratioP1;P2;durP2;ratioP2
16735;SDS011;17990;49.548;9.730;2023-04-16T00:00:24;6.23;;;4.07;;
16735;SDS011;17990;49.548;9.730;2023-04-16T00:02:52;11.00;;;8.40;;
16735;SDS011;17990;49.548;9.730;2023-04-16T00:05:19;8.97;;;7.20;;
16735;SDS011;17990;49.548;9.730;2023-04-16T00:07:46;6.60;;;5.10;;
16735;SDS011;17990;49.548;9.730;2023-04-16T00:10:15;8.33;;;5.63;;
16735;SDS011;17990;49.548;9.730;2023-04-16T00:12:44;7.73;;;5.77;;
16735;SDS011;17990;49.548;9.730;2023-04-16T00:15:11;7.03;;;5.37;;
16735;SDS011;17990;49.548;9.730;2023-04-16T00:17:38;5.00;;;4.10;;
16735;SDS011;17990;49.548;9.730;2023-04-16T00:20:06;6.23;;;4.00;;
16735;SDS011;17990;49.548;9.730;2023-04-16T00:22:33;6.83;;;4.30;;
16735;SDS011;17990;49.548;9.730;2023-04-16T00:25:01;6.70;;;4.90;;
16735;SDS011;17990;49.548;9.730;2023-04-16T00:27:28;5.30;;;4.23;;
16735;SDS011;17990;49.548;9.730;2023-04-16T00:29:56;5.57;;;4.20;;
16735;SDS011;17990;49.548;9.730;2023-04-16T00:32:23;6.00;;;4.43;;
16735;SDS011;17990;49.548;9.730;2023-04-16T00:34:51;10.20;;;5.70;;
16735;SDS011;17990;49.548;9.730;2023-04-16T00:37:18;5.93;;;4.40;;
16735;SDS011;17990;49.548;9.730;2023-04-16T00:39:45;5.70;;;4.17;;
16735;SDS011;17990;49.548;9.730;2023-04-16T00:42:12;5.90;;;4.30;;
16735;SDS011;17990;49.548;9.730;2023-04-16T00:44:39;5.67;;;4.17;;
16735;SDS011;17990;49.548;9.730;2023-04-16T00:47:08;5.57;;;4.00;;
16735;SDS011;17990;49.548;9.730;2023-04-16T00:49:35;4.47;;;3.80;;
16735;SDS011;17990;49.548;9.730;2023-04-16T00:52:02;4.87;;;3.97;;
16735;SDS011;17990;49.548;9.730;2023-04-16T00:54:30;5.40;;;4.13;;
16735;SDS011;17990;49.548;9.730;2023-04-16T00:56:57;7.33;;;4.37;;
16735;SDS011;17990;49.548;9.730;2023-04-16T00:59:25;5.13;;;3.87;;
16735;SDS011;17990;49.548;9.730;2023-04-16T01:01:53;5.87;;;4.40;;
16735;SDS011;17990;49.548;9.730;2023-04-16T01:04:22;5.00;;;4.07;;
16735;SDS011;17990;49.548;9.730;2023-04-16T01:06:50;4.70;;;3.63;;
16735;SDS011;17990;49.548;9.730;2023-04-16T01:09:17;5.43;;;4.10;;
16735;SDS011;17990;49.548;9.730;2023-04-16T01:11:44;4.53;;;3.53;;
16735;SDS011;17990;49.548;9.730;2023-04-16T01:14:11;5.13;;;3.87;;
16735;SDS011;17990;49.548;9.730;2023-04-16T01:16:38;4.67;;;3.90;;
16735;SDS011;17990;49.548;9.730;2023-04-16T01:19:06;7.20;;;4.10;;
16735;SDS011;17990;49.548;9.730;2023-04-16T01:21:34;5.90;;;4.17;;
16735;SDS011;17990;49.548;9.730;2023-04-16T01:24:01;4.87;;;3.57;;
16735;SDS011;17990;49.548;9.730;2023-04-16T01:26:29;5.03;;;3.70;;
16735;SDS011;17990;49.548;9.730;2023-04-16T01:28:56;6.10;;;3.87;;
16735;SDS011;17990;49.548;9.730;2023-04-16T01:31:24;5.17;;;4.07;;
16735;SDS011;17990;49.548;9.730;2023-04-16T01:33:51;4.97;;;4.17;;
16735;SDS011;17990;49.548;9.730;2023-04-16T01:36:18;4.70;;;4.13;;
16735;SDS011;17990;49.548;9.730;2023-04-16T01:38:47;6.00;;;4.13;;
16735;SDS011;17990;49.548;9.730;2023-04-16T01:41:14;5.20;;;4.10;;
16735;SDS011;17990;49.548;9.730;2023-04-16T01:43:41;5.03;;;3.90;;
16735;SDS011;17990;49.548;9.730;2023-04-16T01:46:12;5.67;;;4.27;;
16735;SDS011;17990;49.548;9.730;2023-04-16T01:48:40;5.73;;;3.70;;
16735;SDS011;17990;49.548;9.730;2023-04-16T01:51:08;5.23;;;3.97;;
16735;SDS011;17990;49.548;9.730;2023-04-16T01:53:35;5.83;;;3.93;;
16735;SDS011;17990;49.548;9.730;2023-04-16T01:56:04;5.20;;;4.10;;
16735;SDS011;17990;49.548;9.730;2023-04-16T01:58:32;5.63;;;3.83;;
16735;SDS011;17990;49.548;9.730;2023-04-16T02:00:59;3.80;;;3.20;;
16735;SDS011;17990;49.548;9.730;2023-04-16T02:03:26;4.83;;;3.47;;
16735;SDS011;17990;49.548;9.730;2023-04-16T02:05:53;4.80;;;3.60;;
16735;SDS011;17990;49.548;9.730;2023-04-16T02:08:21;4.40;;;3.83;;
16735;SDS011;17990;49.548;9.730;2023-04-16T02:10:48;5.80;;;3.70;;
16735;SDS011;17990;49.548;9.730;2023-04-16T02:13:17;4.77;;;3.80;;
16735;SDS011;17990;49.548;9.730;2023-04-16T02:15:44;5.43;;;4.20;;
16735;SDS011;17990;49.548;9.730;2023-04-16T02:18:12;5.27;;;3.83;;
16735;SDS011;17990;49.548;9.730;2023-04-16T02:20:40;5.47;;;4.27;;
16735;SDS011;17990;49.548;9.730;2023-04-16T02:23:07;5.50;;;4.10;;
16735;SDS011;17990;49.548;9.730;2023-04-16T02:25:38;4.73;;;3.97;;
16735;SDS011;17990;49.548;9.730;2023-04-16T02:28:06;7.33;;;4.47;;
16735;SDS011;17990;49.548;9.730;2023-04-16T02:30:35;5.87;;;4.40;;
16735;SDS011;17990;49.548;9.730;2023-04-16T02:33:03;6.17;;;4.43;;
16735;SDS011;17990;49.548;9.730;2023-04-16T02:35:31;5.73;;;4.30;;
16735;SDS011;17990;49.548;9.730;2023-04-16T02:37:59;6.40;;;4.73;;
16735;SDS011;17990;49.548;9.730;2023-04-16T02:40:26;6.20;;;4.77;;
16735;SDS011;17990;49.548;9.730;2023-04-16T02:42:54;7.30;;;5.17;;
16735;SDS011;17990;49.548;9.730;2023-04-16T02:45:21;7.13;;;5.00;;
16735;SDS011;17990;49.548;9.730;2023-04-16T02:47:50;6.73;;;4.83;;
16735;SDS011;17990;49.548;9.730;2023-04-16T02:50:17;6.40;;;4.90;;
16735;SDS011;17990;49.548;9.730;2023-04-16T02:52:47;7.67;;;5.20;;
16735;SDS011;17990;49.548;9.730;2023-04-16T02:55:15;8.00;;;5.03;;
16735;SDS011;17990;49.548;9.730;2023-04-16T02:57:42;8.07;;;5.60;;
16735;SDS011;17990;49.548;9.730;2023-04-16T03:00:10;9.23;;;5.87;;
16735;SDS011;17990;49.548;9.730;2023-04-16T03:02:37;7.37;;;5.60;;
16735;SDS011;17990;49.548;9.730;2023-04-16T03:05:07;10.20;;;6.70;;
16735;SDS011;17990;49.548;9.730;2023-04-16T03:07:34;8.53;;;6.47;;
16735;SDS011;17990;49.548;9.730;2023-04-16T03:10:03;8.87;;;6.57;;
16735;SDS011;17990;49.548;9.730;2023-04-16T03:12:31;10.07;;;6.97;;
16735;SDS011;17990;49.548;9.730;2023-04-16T03:14:58;8.73;;;6.57;;
16735;SDS011;17990;49.548;9.730;2023-04-16T03:17:25;10.57;;;6.70;;
16735;SDS011;17990;49.548;9.730;2023-04-16T03:19:52;8.33;;;6.47;;
16735;SDS011;17990;49.548;9.730;2023-04-16T03:22:21;8.70;;;6.33;;
16735;SDS011;17990;49.548;9.730;2023-04-16T03:24:48;10.60;;;7.00;;
16735;SDS011;17990;49.548;9.730;2023-04-16T03:27:15;10.17;;;7.10;;
16735;SDS011;17990;49.548;9.730;2023-04-16T03:29:42;9.20;;;6.93;;
16735;SDS011;17990;49.548;9.730;2023-04-16T03:32:09;9.97;;;6.17;;
16735;SDS011;17990;49.548;9.730;2023-04-16T03:34:37;8.60;;;6.00;;
16735;SDS011;17990;49.548;9.730;2023-04-16T03:37:04;11.83;;;6.80;;
16735;SDS011;17990;49.548;9.730;2023-04-16T03:39:37;9.07;;;6.00;;
16735;SDS011;17990;49.548;9.730;2023-04-16T03:42:04;8.37;;;6.00;;
16735;SDS011;17990;49.548;9.730;2023-04-16T03:44:31;8.50;;;5.77;;
16735;SDS011;17990;49.548;9.730;2023-04-16T03:46:58;9.07;;;5.83;;
16735;SDS011;17990;49.548;9.730;2023-04-16T03:49:25;8.20;;;5.40;;
16735;SDS011;17990;49.548;9.730;2023-04-16T03:51:53;8.90;;;5.50;;
16735;SDS011;17990;49.548;9.730;2023-04-16T03:54:20;8.47;;;5.83;;
16735;SDS011;17990;49.548;9.730;2023-04-16T03:56:48;7.73;;;5.70;;
16735;SDS011;17990;49.548;9.730;2023-04-16T03:59:16;6.43;;;5.17;;
16735;SDS011;17990;49.548;9.730;2023-04-16T04:01:43;8.63;;;5.70;;
16735;SDS011;17990;49.548;9.730;2023-04-16T04:04:10;7.47;;;5.60;;
16735;SDS011;17990;49.548;9.730;2023-04-16T04:06:37;8.47;;;5.53;;
16735;SDS011;17990;49.548;9.730;2023-04-16T04:09:05;7.70;;;5.20;;
16735;SDS011;17990;49.548;9.730;2023-04-16T04:11:32;9.17;;;5.30;;
16735;SDS011;17990;49.548;9.730;2023-04-16T04:17:03;7.47;;;5.33;;
16735;SDS011;17990;49.548;9.730;2023-04-16T04:19:31;8.80;;;5.23;;
16735;SDS011;17990;49.548;9.730;2023-04-16T04:21:58;8.90;;;6.17;;
16735;SDS011;17990;49.548;9.730;2023-04-16T04:24:25;8.93;;;5.93;;
16735;SDS011;17990;49.548;9.730;2023-04-16T04:26:52;7.70;;;5.50;;
16735;SDS011;17990;49.548;9.730;2023-04-16T04:29:19;7.57;;;5.93;;
16735;SDS011;17990;49.548;9.730;2023-04-16T04:31:48;9.37;;;6.03;;
16735;SDS011;17990;49.548;9.730;2023-04-16T04:34:15;8.50;;;6.07;;
16735;SDS011;17990;49.548;9.730;2023-04-16T04:36:42;9.57;;;6.83;;
16735;SDS011;17990;49.548;9.730;2023-04-16T04:39:09;10.43;;;7.27;;
16735;SDS011;17990;49.548;9.730;2023-04-16T04:41:36;11.87;;;7.33;;
16735;SDS011;17990;49.548;9.730;2023-04-16T04:44:04;10.63;;;7.43;;
16735;SDS011;17990;49.548;9.730;2023-04-16T04:46:31;12.77;;;7.83;;
16735;SDS011;17990;49.548;9.730;2023-04-16T04:48:59;11.63;;;8.10;;
16735;SDS011;17990;49.548;9.730;2023-04-16T04:51:26;11.20;;;7.77;;
16735;SDS011;17990;49.548;9.730;2023-04-16T04:53:54;16.13;;;8.90;;
16735;SDS011;17990;49.548;9.730;2023-04-16T04:56:21;12.97;;;8.37;;
16735;SDS011;17990;49.548;9.730;2023-04-16T04:58:48;15.83;;;9.63;;
16735;SDS011;17990;49.548;9.730;2023-04-16T05:01:15;12.37;;;8.80;;
16735;SDS011;17990;49.548;9.730;2023-04-16T05:03:43;14.33;;;9.83;;
16735;SDS011;17990;49.548;9.730;2023-04-16T05:06:11;15.43;;;9.87;;
16735;SDS011;17990;49.548;9.730;2023-04-16T05:08:38;16.93;;;9.90;;
16735;SDS011;17990;49.548;9.730;2023-04-16T05:11:06;15.73;;;9.97;;
16735;SDS011;17990;49.548;9.730;2023-04-16T05:13:33;15.77;;;10.03;;
16735;SDS011;17990;49.548;9.730;2023-04-16T05:16:00;13.93;;;9.50;;
16735;SDS011;17990;49.548;9.730;2023-04-16T05:18:27;15.67;;;10.73;;
16735;SDS011;17990;49.548;9.730;2023-04-16T05:20:55;16.00;;;10.23;;
16735;SDS011;17990;49.548;9.730;2023-04-16T05:23:23;18.00;;;10.30;;
16735;SDS011;17990;49.548;9.730;2023-04-16T05:25:51;19.13;;;10.80;;
16735;SDS011;17990;49.548;9.730;2023-04-16T05:28:18;17.83;;;11.03;;
16735;SDS011;17990;49.548;9.730;2023-04-16T05:30:45;19.73;;;12.00;;
16735;SDS011;17990;49.548;9.730;2023-04-16T05:33:12;17.17;;;10.80;;
16735;SDS011;17990;49.548;9.730;2023-04-16T05:35:39;17.93;;;11.40;;
16735;SDS011;17990;49.548;9.730;2023-04-16T05:38:06;17.53;;;11.77;;
16735;SDS011;17990;49.548;9.730;2023-04-16T05:40:35;19.33;;;11.87;;
16735;SDS011;17990;49.548;9.730;2023-04-16T05:43:02;21.20;;;12.17;;
16735;SDS011;17990;49.548;9.730;2023-04-16T05:45:30;19.03;;;12.43;;
16735;SDS011;17990;49.548;9.730;2023-04-16T05:48:03;18.53;;;11.60;;
16735;SDS011;17990;49.548;9.730;2023-04-16T05:50:31;18.53;;;12.23;;
16735;SDS011;17990;49.548;9.730;2023-04-16T05:52:58;21.33;;;12.17;;
16735;SDS011;17990;49.548;9.730;2023-04-16T05:55:25;19.13;;;11.80;;
16735;SDS011;17990;49.548;9.730;2023-04-16T05:57:53;19.90;;;11.87;;
16735;SDS011;17990;49.548;9.730;2023-04-16T06:00:21;16.30;;;11.87;;
16735;SDS011;17990;49.548;9.730;2023-04-16T06:02:48;15.77;;;11.57;;
16735;SDS011;17990;49.548;9.730;2023-04-16T06:05:15;18.43;;;12.00;;
16735;SDS011;17990;49.548;9.730;2023-04-16T06:07:42;16.53;;;12.10;;
16735;SDS011;17990;49.548;9.730;2023-04-16T06:10:10;16.53;;;11.83;;
16735;SDS011;17990;49.548;9.730;2023-04-16T06:12:37;17.60;;;11.77;;
16735;SDS011;17990;49.548;9.730;2023-04-16T06:15:06;17.40;;;12.20;;
16735;SDS011;17990;49.548;9.730;2023-04-16T06:17:34;16.63;;;11.23;;
16735;SDS011;17990;49.548;9.730;2023-04-16T06:20:01;17.07;;;11.50;;
16735;SDS011;17990;49.548;9.730;2023-04-16T06:22:29;17.90;;;11.40;;
16735;SDS011;17990;49.548;9.730;2023-04-16T06:24:56;16.03;;;11.30;;
16735;SDS011;17990;49.548;9.730;2023-04-16T06:27:23;17.50;;;14.03;;
16735;SDS011;17990;49.548;9.730;2023-04-16T06:29:51;20.10;;;13.47;;
16735;SDS011;17990;49.548;9.730;2023-04-16T06:32:19;18.63;;;13.30;;
16735;SDS011;17990;49.548;9.730;2023-04-16T06:34:46;14.97;;;11.57;;
16735;SDS011;17990;49.548;9.730;2023-04-16T06:37:14;16.93;;;11.40;;
16735;SDS011;17990;49.548;9.730;2023-04-16T06:39:41;14.40;;;10.83;;
16735;SDS011;17990;49.548;9.730;2023-04-16T06:42:08;14.73;;;10.30;;
16735;SDS011;17990;49.548;9.730;2023-04-16T06:44:35;14.57;;;10.23;;
16735;SDS011;17990;49.548;9.730;2023-04-16T06:47:02;14.63;;;10.20;;
16735;SDS011;17990;49.548;9.730;2023-04-16T06:49:31;14.93;;;10.40;;
16735;SDS011;17990;49.548;9.730;2023-04-16T06:51:58;14.57;;;10.43;;
16735;SDS011;17990;49.548;9.730;2023-04-16T06:54:25;11.90;;;9.70;;
16735;SDS011;17990;49.548;9.730;2023-04-16T06:56:52;14.10;;;10.10;;
16735;SDS011;17990;49.548;9.730;2023-04-16T06:59:20;14.90;;;9.90;;
16735;SDS011;17990;49.548;9.730;2023-04-16T07:01:47;13.27;;;9.70;;
16735;SDS011;17990;49.548;9.730;2023-04-16T07:04:17;12.77;;;9.50;;
16735;SDS011;17990;49.548;9.730;2023-04-16T07:06:57;12.77;;;9.33;;
16735;SDS011;17990;49.548;9.730;2023-04-16T07:09:24;12.67;;;9.20;;
16735;SDS011;17990;49.548;9.730;2023-04-16T07:11:51;11.10;;;8.23;;
16735;SDS011;17990;49.548;9.730;2023-04-16T07:14:19;11.87;;;8.63;;
16735;SDS011;17990;49.548;9.730;2023-04-16T07:16:46;11.50;;;8.13;;
16735;SDS011;17990;49.548;9.730;2023-04-16T07:19:13;11.50;;;8.37;;
16735;SDS011;17990;49.548;9.730;2023-04-16T07:21:41;11.87;;;8.43;;
16735;SDS011;17990;49.548;9.730;2023-04-16T07:24:09;11.07;;;8.43;;
16735;SDS011;17990;49.548;9.730;2023-04-16T07:26:37;10.60;;;8.47;;
16735;SDS011;17990;49.548;9.730;2023-04-16T07:29:04;13.13;;;8.83;;
16735;SDS011;17990;49.548;9.730;2023-04-16T07:31:31;11.20;;;7.97;;
16735;SDS011;17990;49.548;9.730;2023-04-16T07:33:58;10.70;;;8.00;;
16735;SDS011;17990;49.548;9.730;2023-04-16T07:36:25;10.70;;;8.30;;
16735;SDS011;17990;49.548;9.730;2023-04-16T07:38:53;8.77;;;6.97;;
16735;SDS011;17990;49.548;9.730;2023-04-16T07:41:22;10.03;;;7.20;;
16735;SDS011;17990;49.548;9.730;2023-04-16T07:43:49;9.30;;;7.23;;
16735;SDS011;17990;49.548;9.730;2023-04-16T07:46:17;8.73;;;7.10;;
16735;SDS011;17990;49.548;9.730;2023-04-16T07:48:44;9.60;;;6.77;;
16735;SDS011;17990;49.548;9.730;2023-04-16T07:51:11;8.17;;;6.30;;
16735;SDS011;17990;49.548;9.730;2023-04-16T07:53:38;7.90;;;6.57;;
16735;SDS011;17990;49.548;9.730;2023-04-16T07:56:07;8.77;;;6.27;;
16735;SDS011;17990;49.548;9.730;2023-04-16T07:58:36;8.03;;;6.00;;
16735;SDS011;17990;49.548;9.730;2023-04-16T08:01:03;7.53;;;5.93;;
16735;SDS011;17990;49.548;9.730;2023-04-16T08:03:30;7.20;;;5.97;;
16735;SDS011;17990;49.548;9.730;2023-04-16T08:05:57;6.60;;;5.40;;
16735;SDS011;17990;49.548;9.730;2023-04-16T08:08:25;8.87;;;5.77;;
16735;SDS011;17990;49.548;9.730;2023-04-16T08:10:52;7.60;;;5.87;;
16735;SDS011;17990;49.548;9.730;2023-04-16T08:13:20;8.03;;;5.53;;
16735;SDS011;17990;49.548;9.730;2023-04-16T08:15:49;6.70;;;5.03;;
16735;SDS011;17990;49.548;9.730;2023-04-16T08:18:17;7.03;;;5.13;;
16735;SDS011;17990;49.548;9.730;2023-04-16T08:20:44;6.83;;;4.77;;
16735;SDS011;17990;49.548;9.730;2023-04-16T08:23:11;7.40;;;5.00;;
16735;SDS011;17990;49.548;9.730;2023-04-16T08:25:38;5.80;;;4.73;;
16735;SDS011;17990;49.548;9.730;2023-04-16T08:28:06;5.83;;;4.57;;
16735;SDS011;17990;49.548;9.730;2023-04-16T08:30:33;6.73;;;4.70;;
16735;SDS011;17990;49.548;9.730;2023-04-16T08:33:02;6.60;;;4.83;;
16735;SDS011;17990;49.548;9.730;2023-04-16T08:35:29;6.73;;;5.23;;
16735;SDS011;17990;49.548;9.730;2023-04-16T08:37:56;7.37;;;5.30;;
16735;SDS011;17990;49.548;9.730;2023-04-16T08:40:24;7.40;;;5.23;;
16735;SDS011;17990;49.548;9.730;2023-04-16T08:42:52;6.30;;;5.07;;
16735;SDS011;17990;49.548;9.730;2023-04-16T08:45:20;7.20;;;5.07;;
16735;SDS011;17990;49.548;9.730;2023-04-16T08:47:48;7.17;;;4.67;;
16735;SDS011;17990;49.548;9.730;2023-04-16T08:50:21;5.87;;;4.30;;
16735;SDS011;17990;49.548;9.730;2023-04-16T08:52:49;6.13;;;4.70;;
16735;SDS011;17990;49.548;9.730;2023-04-16T08:55:18;7.03;;;4.47;;
16735;SDS011;17990;49.548;9.730;2023-04-16T08:57:49;6.60;;;4.83;;
16735;SDS011;17990;49.548;9.730;2023-04-16T09:00:18;5.80;;;4.70;;
16735;SDS011;17990;49.548;9.730;2023-04-16T09:02:46;6.07;;;4.57;;
16735;SDS011;17990;49.548;9.730;2023-04-16T09:05:14;4.87;;;4.37;;
16735;SDS011;17990;49.548;9.730;2023-04-16T09:07:44;6.13;;;4.73;;
16735;SDS011;17990;49.548;9.730;2023-04-16T09:10:12;4.17;;;3.67;;
16735;SDS011;17990;49.548;9.730;2023-04-16T09:12:40;5.67;;;4.67;;
16735;SDS011;17990;49.548;9.730;2023-04-16T09:15:08;5.23;;;4.40;;
16735;SDS011;17990;49.548;9.730;2023-04-16T09:17:36;5.70;;;4.07;;
16735;SDS011;17990;49.548;9.730;2023-04-16T09:20:04;6.53;;;3.60;;
16735;SDS011;17990;49.548;9.730;2023-04-16T09:22:34;4.13;;;3.43;;
16735;SDS011;17990;49.548;9.730;2023-04-16T09:25:04;4.80;;;3.70;;
16735;SDS011;17990;49.548;9.730;2023-04-16T09:27:31;4.07;;;3.63;;
16735;SDS011;17990;49.548;9.730;2023-04-16T09:29:58;5.43;;;3.80;;
16735;SDS011;17990;49.548;9.730;2023-04-16T09:32:26;4.50;;;3.40;;
16735;SDS011;17990;49.548;9.730;2023-04-16T09:34:55;4.23;;;3.80;;
16735;SDS011;17990;49.548;9.730;2023-04-16T09:37:23;3.47;;;2.97;;
16735;SDS011;17990;49.548;9.730;2023-04-16T09:39:54;4.73;;;3.77;;
16735;SDS011;17990;49.548;9.730;2023-04-16T09:42:24;3.83;;;3.10;;
16735;SDS011;17990;49.548;9.730;2023-04-16T09:44:52;3.77;;;2.97;;
16735;SDS011;17990;49.548;9.730;2023-04-16T09:47:21;3.47;;;3.00;;
16735;SDS011;17990;49.548;9.730;2023-04-16T09:49:52;3.53;;;2.93;;
16735;SDS011;17990;49.548;9.730;2023-04-16T09:52:24;4.33;;;3.30;;
16735;SDS011;17990;49.548;9.730;2023-04-16T09:54:52;3.50;;;3.00;;
16735;SDS011;17990;49.548;9.730;2023-04-16T09:57:19;4.53;;;3.77;;
16735;SDS011;17990;49.548;9.730;2023-04-16T09:59:49;3.70;;;3.30;;
16735;SDS011;17990;49.548;9.730;2023-04-16T10:02:18;3.90;;;3.47;;
16735;SDS011;17990;49.548;9.730;2023-04-16T10:04:47;4.73;;;3.17;;
16735;SDS011;17990;49.548;9.730;2023-04-16T10:07:15;3.97;;;3.00;;
16735;SDS011;17990;49.548;9.730;2023-04-16T10:09:42;4.23;;;3.23;;
16735;SDS011;17990;49.548;9.730;2023-04-16T10:12:12;2.97;;;2.67;;
16735;SDS011;17990;49.548;9.730;2023-04-16T10:14:40;3.90;;;3.23;;
16735;SDS011;17990;49.548;9.730;2023-04-16T10:17:09;4.97;;;2.50;;
16735;SDS011;17990;49.548;9.730;2023-04-16T10:19:36;3.93;;;3.20;;
16735;SDS011;17990;49.548;9.730;2023-04-16T10:22:03;3.90;;;3.07;;
16735;SDS011;17990;49.548;9.730;2023-04-16T10:24:32;3.60;;;2.40;;
16735;SDS011;17990;49.548;9.730;2023-04-16T10:26:59;4.33;;;3.00;;
16735;SDS011;17990;49.548;9.730;2023-04-16T10:29:28;5.03;;;2.70;;
16735;SDS011;17990;49.548;9.730;2023-04-16T10:31:55;5.17;;;2.97;;
16735;SDS011;17990;49.548;9.730;2023-04-16T10:34:24;2.93;;;2.63;;
16735;SDS011;17990;49.548;9.730;2023-04-16T10:36:53;2.60;;;2.40;;
16735;SDS011;17990;49.548;9.730;2023-04-16T10:39:20;4.37;;;3.10;;
16735;SDS011;17990;49.548;9.730;2023-04-16T10:41:48;3.33;;;2.90;;
16735;SDS011;17990;49.548;9.730;2023-04-16T10:44:16;2.93;;;2.33;;
16735;SDS011;17990;49.548;9.730;2023-04-16T10:46:45;3.47;;;2.87;;
16735;SDS011;17990;49.548;9.730;2023-04-16T10:49:16;4.30;;;3.00;;
16735;SDS011;17990;49.548;9.730;2023-04-16T10:51:55;3.47;;;2.93;;
16735;SDS011;17990;49.548;9.730;2023-04-16T10:54:26;3.60;;;2.90;;
16735;SDS011;17990;49.548;9.730;2023-04-16T10:56:55;3.07;;;2.70;;
16735;SDS011;17990;49.548;9.730;2023-04-16T10:59:23;3.07;;;2.70;;
16735;SDS011;17990;49.548;9.730;2023-04-16T11:01:51;2.57;;;2.37;;
16735;SDS011;17990;49.548;9.730;2023-04-16T11:04:26;4.40;;;2.63;;
16735;SDS011;17990;49.548;9.730;2023-04-16T11:07:02;3.60;;;2.70;;
16735;SDS011;17990;49.548;9.730;2023-04-16T11:09:44;3.10;;;2.47;;
16735;SDS011;17990;49.548;9.730;2023-04-16T11:12:14;3.10;;;2.80;;
16735;SDS011;17990;49.548;9.730;2023-04-16T11:14:43;3.97;;;2.70;;
16735;SDS011;17990;49.548;9.730;2023-04-16T11:17:13;3.90;;;3.17;;
16735;SDS011;17990;49.548;9.730;2023-04-16T11:19:41;2.90;;;2.60;;
16735;SDS011;17990;49.548;9.730;2023-04-16T11:22:10;3.83;;;2.93;;
16735;SDS011;17990;49.548;9.730;2023-04-16T11:24:39;3.00;;;2.70;;
16735;SDS011;17990;49.548;9.730;2023-04-16T11:27:06;3.30;;;3.00;;
16735;SDS011;17990;49.548;9.730;2023-04-16T11:29:33;4.50;;;2.93;;
16735;SDS011;17990;49.548;9.730;2023-04-16T11:32:01;3.20;;;2.80;;
16735;SDS011;17990;49.548;9.730;2023-04-16T11:34:28;2.87;;;2.60;;
16735;SDS011;17990;49.548;9.730;2023-04-16T11:36:55;3.97;;;3.03;;
16735;SDS011;17990;49.548;9.730;2023-04-16T11:39:24;5.17;;;3.97;;
16735;SDS011;17990;49.548;9.730;2023-04-16T11:41:51;4.43;;;2.90;;
16735;SDS011;17990;49.548;9.730;2023-04-16T11:44:19;5.97;;;4.33;;
16735;SDS011;17990;49.548;9.730;2023-04-16T11:46:47;3.70;;;3.30;;
16735;SDS011;17990;49.548;9.730;2023-04-16T11:49:15;6.40;;;4.10;;
16735;SDS011;17990;49.548;9.730;2023-04-16T11:51:43;3.80;;;3.40;;
16735;SDS011;17990;49.548;9.730;2023-04-16T11:54:17;3.63;;;2.80;;
16735;SDS011;17990;49.548;9.730;2023-04-16T11:56:47;5.17;;;3.60;;
16735;SDS011;17990;49.548;9.730;2023-04-16T11:59:15;6.60;;;3.90;;
16735;SDS011;17990;49.548;9.730;2023-04-16T12:01:45;6.20;;;3.90;;
16735;SDS011;17990;49.548;9.730;2023-04-16T12:04:13;5.00;;;3.00;;
16735;SDS011;17990;49.548;9.730;2023-04-16T12:09:30;9.20;;;5.60;;
16735;SDS011;17990;49.548;9.730;2023-04-16T12:12:00;5.20;;;3.20;;
16735;SDS011;17990;49.548;9.730;2023-04-16T12:14:27;5.87;;;4.20;;
16735;SDS011;17990;49.548;9.730;2023-04-16T12:16:55;3.70;;;3.33;;
16735;SDS011;17990;49.548;9.730;2023-04-16T12:19:22;3.83;;;3.20;;
16735;SDS011;17990;49.548;9.730;2023-04-16T12:21:49;5.00;;;3.23;;
16735;SDS011;17990;49.548;9.730;2023-04-16T12:24:18;3.43;;;2.77;;
16735;SDS011;17990;49.548;9.730;2023-04-16T12:26:50;4.33;;;2.87;;
16735;SDS011;17990;49.548;9.730;2023-04-16T12:29:21;3.13;;;2.70;;
16735;SDS011;17990;49.548;9.730;2023-04-16T12:31:50;3.03;;;2.73;;
16735;SDS011;17990;49.548;9.730;2023-04-16T12:34:18;3.60;;;3.10;;
16735;SDS011;17990;49.548;9.730;2023-04-16T12:36:46;3.80;;;3.40;;
16735;SDS011;17990;49.548;9.730;2023-04-16T12:39:15;4.27;;;3.47;;
16735;SDS011;17990;49.548;9.730;2023-04-16T12:41:43;4.67;;;3.13;;
16735;SDS011;17990;49.548;9.730;2023-04-16T12:44:11;3.50;;;3.20;;
16735;SDS011;17990;49.548;9.730;2023-04-16T12:46:43;4.37;;;3.70;;
16735;SDS011;17990;49.548;9.730;2023-04-16T12:49:10;3.10;;;2.77;;
16735;SDS011;17990;49.548;9.730;2023-04-16T12:51:37;3.87;;;3.47;;
16735;SDS011;17990;49.548;9.730;2023-04-16T12:54:05;3.70;;;2.90;;
16735;SDS011;17990;49.548;9.730;2023-04-16T12:56:33;3.63;;;3.23;;
16735;SDS011;17990;49.548;9.730;2023-04-16T12:59:00;4.13;;;3.33;;
16735;SDS011;17990;49.548;9.730;2023-04-16T13:01:28;3.40;;;3.07;;
16735;SDS011;17990;49.548;9.730;2023-04-16T13:03:56;4.10;;;3.70;;
16735;SDS011;17990;49.548;9.730;2023-04-16T13:06:23;10.00;;;6.67;;
16735;SDS011;17990;49.548;9.730;2023-04-16T13:08:51;10.10;;;6.50;;
16735;SDS011;17990;49.548;9.730;2023-04-16T13:11:18;5.77;;;4.80;;
16735;SDS011;17990;49.548;9.730;2023-04-16T13:13:46;4.10;;;3.70;;
16735;SDS011;17990;49.548;9.730;2023-04-16T13:16:13;4.27;;;3.47;;
16735;SDS011;17990;49.548;9.730;2023-04-16T13:18:40;4.27;;;3.53;;
16735;SDS011;17990;49.548;9.730;2023-04-16T13:21:09;3.87;;;3.47;;
16735;SDS011;17990;49.548;9.730;2023-04-16T13:23:37;3.50;;;3.20;;
16735;SDS011;17990;49.548;9.730;2023-04-16T13:26:04;4.67;;;4.27;;
16735;SDS011;17990;49.548;9.730;2023-04-16T13:28:31;3.83;;;3.50;;
16735;SDS011;17990;49.548;9.730;2023-04-16T13:30:59;4.00;;;3.13;;
16735;SDS011;17990;49.548;9.730;2023-04-16T13:33:26;4.03;;;3.57;;
16735;SDS011;17990;49.548;9.730;2023-04-16T13:35:54;3.60;;;3.30;;
16735;SDS011;17990;49.548;9.730;2023-04-16T13:38:23;4.47;;;3.90;;
16735;SDS011;17990;49.548;9.730;2023-04-16T13:40:50;3.50;;;3.20;;
16735;SDS011;17990;49.548;9.730;2023-04-16T13:43:17;3.97;;;3.57;;
16735;SDS011;17990;49.548;9.730;2023-04-16T13:45:46;4.03;;;3.33;;
16735;SDS011;17990;49.548;9.730;2023-04-16T13:48:13;4.83;;;4.03;;
16735;SDS011;17990;49.548;9.730;2023-04-16T13:50:41;3.90;;;3.50;;
16735;SDS011;17990;49.548;9.730;2023-04-16T13:53:09;4.33;;;3.93;;
16735;SDS011;17990;49.548;9.730;2023-04-16T13:55:37;3.87;;;3.40;;
16735;SDS011;17990;49.548;9.730;2023-04-16T13:58:05;4.33;;;3.30;;
16735;SDS011;17990;49.548;9.730;2023-04-16T14:00:32;4.97;;;3.50;;
16735;SDS011;17990;49.548;9.730;2023-04-16T14:02:59;4.30;;;3.50;;
16735;SDS011;17990;49.548;9.730;2023-04-16T14:05:27;4.03;;;3.70;;
16735;SDS011;17990;49.548;9.730;2023-04-16T14:07:54;4.43;;;3.90;;
16735;SDS011;17990;49.548;9.730;2023-04-16T14:10:21;4.40;;;3.83;;
16735;SDS011;17990;49.548;9.730;2023-04-16T14:12:50;3.97;;;3.50;;
16735;SDS011;17990;49.548;9.730;2023-04-16T14:15:17;5.07;;;4.10;;
16735;SDS011;17990;49.548;9.730;2023-04-16T14:17:44;5.23;;;4.07;;
16735;SDS011;17990;49.548;9.730;2023-04-16T14:20:12;5.70;;;3.70;;
16735;SDS011;17990;49.548;9.730;2023-04-16T14:22:40;4.77;;;4.00;;
16735;SDS011;17990;49.548;9.730;2023-04-16T14:25:08;4.67;;;3.93;;
16735;SDS011;17990;49.548;9.730;2023-04-16T14:27:35;5.03;;;4.53;;
16735;SDS011;17990;49.548;9.730;2023-04-16T14:30:04;4.80;;;4.30;;
16735;SDS011;17990;49.548;9.730;2023-04-16T14:32:32;4.13;;;3.73;;
16735;SDS011;17990;49.548;9.730;2023-04-16T14:35:00;3.83;;;3.43;;
16735;SDS011;17990;49.548;9.730;2023-04-16T14:37:28;4.73;;;3.37;;
16735;SDS011;17990;49.548;9.730;2023-04-16T14:39:55;5.13;;;3.80;;
16735;SDS011;17990;49.548;9.730;2023-04-16T14:42:22;5.43;;;3.50;;
16735;SDS011;17990;49.548;9.730;2023-04-16T14:44:50;3.50;;;3.17;;
16735;SDS011;17990;49.548;9.730;2023-04-16T14:47:18;3.83;;;3.20;;
16735;SDS011;17990;49.548;9.730;2023-04-16T14:49:46;3.70;;;3.30;;
16735;SDS011;17990;49.548;9.730;2023-04-16T14:52:13;3.00;;;2.70;;